createdAt,value
2022-12-20T00:01:35.595Z,28.33
2022-12-20T00:04:05.959Z,28.80
2022-12-20T00:06:37.096Z,28.30
2022-12-20T00:09:07.321Z,28.80
2022-12-20T00:11:35.544Z,28.30
2022-12-20T00:14:03.422Z,28.93
2022-12-20T00:16:31.210Z,28.63
2022-12-20T00:19:02.922Z,27.40
2022-12-20T00:21:32.398Z,28.67
2022-12-20T00:24:00.265Z,28.53
2022-12-20T00:26:30.503Z,28.77
2022-12-20T00:28:58.322Z,28.53
2022-12-20T00:31:28.112Z,28.40
2022-12-20T00:33:57.076Z,29.77
2022-12-20T00:36:26.280Z,30.37
2022-12-20T00:38:55.328Z,29.87
2022-12-20T00:41:25.358Z,27.70
2022-12-20T00:43:53.368Z,28.00
2022-12-20T00:46:24.902Z,29.10
2022-12-20T00:48:54.536Z,27.77
2022-12-20T00:51:26.494Z,28.90
2022-12-20T00:53:54.517Z,29.60
2022-12-20T00:56:22.777Z,29.90
2022-12-20T00:58:50.316Z,31.47
2022-12-20T01:01:24.450Z,29.60
2022-12-20T01:03:53.959Z,29.60
2022-12-20T01:06:22.711Z,29.80
2022-12-20T01:08:50.859Z,29.70
2022-12-20T01:11:21.044Z,29.47
2022-12-20T01:13:51.705Z,30.00
2022-12-20T01:16:26.495Z,29.93
2022-12-20T01:18:55.023Z,29.97
2022-12-20T01:21:24.884Z,30.50
2022-12-20T01:23:53.196Z,28.77
2022-12-20T01:26:22.830Z,29.33
2022-12-20T01:28:54.425Z,30.80
2022-12-20T01:31:22.198Z,28.97
2022-12-20T01:33:51.236Z,29.63
2022-12-20T01:36:21.911Z,29.63
2022-12-20T01:38:49.188Z,32.27
2022-12-20T01:41:19.497Z,29.73
2022-12-20T01:43:56.608Z,30.30
2022-12-20T01:46:26.895Z,31.43
2022-12-20T01:49:14.417Z,28.20
2022-12-20T01:52:11.241Z,29.43
2022-12-20T01:54:47.709Z,28.63
2022-12-20T01:57:22.891Z,28.40
2022-12-20T01:59:51.949Z,27.83
2022-12-20T02:02:23.102Z,27.53
2022-12-20T02:04:51.115Z,26.30
2022-12-20T02:07:24.409Z,25.13
2022-12-20T02:09:54.295Z,25.67
2022-12-20T02:12:24.432Z,25.67
2022-12-20T02:15:03.734Z,24.70
2022-12-20T02:17:49.192Z,23.80
2022-12-20T02:20:16.693Z,22.20
2022-12-20T02:22:53.299Z,23.97
2022-12-20T02:25:32.125Z,22.70
2022-12-20T02:28:30.089Z,22.97
2022-12-20T02:31:00.551Z,22.67
2022-12-20T02:33:28.913Z,23.87
2022-12-20T02:35:56.753Z,23.10
2022-12-20T02:38:36.063Z,23.70
2022-12-20T02:41:30.403Z,24.23
2022-12-20T02:44:25.534Z,25.50
2022-12-20T02:46:54.473Z,26.07
2022-12-20T02:49:28.406Z,24.63
2022-12-20T02:51:57.258Z,27.03
2022-12-20T02:54:25.238Z,25.73
2022-12-20T02:57:08.397Z,27.83
2022-12-20T02:59:42.950Z,26.73
2022-12-20T03:02:12.915Z,26.97
2022-12-20T03:04:42.152Z,27.23
2022-12-20T03:07:13.422Z,25.47
2022-12-20T03:09:44.084Z,27.27
2022-12-20T03:12:15.967Z,26.37
2022-12-20T03:14:44.094Z,26.27
2022-12-20T03:17:14.523Z,26.10
2022-12-20T03:19:43.407Z,27.33
2022-12-20T03:22:11.701Z,27.30
2022-12-20T03:24:39.350Z,27.17
2022-12-20T03:27:12.455Z,27.93
2022-12-20T03:29:39.906Z,27.27
2022-12-20T03:32:07.700Z,27.73
2022-12-20T03:34:35.004Z,27.53
2022-12-20T03:37:03.125Z,27.13
2022-12-20T03:39:30.967Z,26.37
2022-12-20T03:41:58.463Z,27.07
2022-12-20T03:44:26.639Z,26.33
2022-12-20T03:46:54.781Z,26.37
2022-12-20T03:49:22.117Z,27.53
2022-12-20T03:51:52.239Z,27.03
2022-12-20T03:54:19.723Z,26.47
2022-12-20T03:57:10.042Z,26.37
2022-12-20T03:59:38.958Z,26.23
2022-12-20T04:02:09.209Z,26.93
2022-12-20T04:04:36.970Z,26.73
2022-12-20T04:07:04.754Z,26.57
2022-12-20T04:09:32.793Z,26.63
2022-12-20T04:12:06.522Z,27.70
2022-12-20T04:14:37.722Z,27.00
2022-12-20T04:17:05.804Z,26.93
2022-12-20T04:19:34.675Z,28.23
2022-12-20T04:22:06.162Z,26.53
2022-12-20T04:24:46.838Z,28.50
2022-12-20T04:27:25.438Z,28.07
2022-12-20T04:29:55.359Z,27.70
2022-12-20T04:32:23.854Z,29.13
2022-12-20T04:34:51.628Z,28.63
2022-12-20T04:37:19.850Z,27.50
2022-12-20T04:39:52.289Z,28.20
2022-12-20T04:42:26.786Z,28.10
2022-12-20T04:44:55.549Z,29.30
2022-12-20T04:47:26.811Z,28.77
2022-12-20T04:49:55.614Z,28.50
2022-12-20T04:52:47.361Z,28.83
2022-12-20T04:55:15.556Z,29.17
2022-12-20T04:57:43.041Z,28.27
2022-12-20T05:00:11.519Z,28.33
2022-12-20T05:02:43.804Z,29.10
2022-12-20T05:05:15.515Z,28.87
2022-12-20T05:07:49.062Z,29.90
2022-12-20T05:10:17.388Z,30.50
2022-12-20T05:12:45.299Z,29.50
2022-12-20T05:15:20.981Z,28.97
2022-12-20T05:17:48.526Z,36.33
2022-12-20T05:20:16.211Z,30.57
2022-12-20T05:23:04.464Z,30.60
2022-12-20T05:25:50.974Z,28.63
2022-12-20T05:28:18.580Z,28.90
2022-12-20T05:30:46.065Z,29.67
2022-12-20T05:33:14.318Z,29.07
2022-12-20T05:35:43.155Z,27.90
2022-12-20T05:38:14.018Z,30.17
2022-12-20T05:40:41.696Z,30.03
2022-12-20T05:43:09.910Z,28.57
2022-12-20T05:45:50.003Z,29.13
2022-12-20T05:48:22.474Z,29.00
2022-12-20T05:50:50.008Z,29.40
2022-12-20T05:53:29.137Z,28.97
2022-12-20T05:56:01.302Z,30.17
2022-12-20T05:58:40.300Z,30.63
2022-12-20T06:01:10.544Z,29.77
2022-12-20T06:03:40.972Z,30.17
2022-12-20T06:06:15.541Z,30.83
2022-12-20T06:08:46.494Z,29.13
2022-12-20T06:11:29.360Z,29.27
2022-12-20T06:14:03.333Z,30.13
2022-12-20T06:16:31.361Z,29.90
2022-12-20T06:19:01.013Z,28.80
2022-12-20T06:21:29.171Z,28.53
2022-12-20T06:23:57.980Z,30.03
2022-12-20T06:26:25.361Z,32.23
2022-12-20T06:28:54.653Z,30.33
2022-12-20T06:31:26.147Z,30.70
2022-12-20T06:33:55.648Z,33.53
2022-12-20T06:36:26.224Z,31.60
2022-12-20T06:38:54.403Z,32.03
2022-12-20T06:41:21.956Z,29.83
2022-12-20T06:43:49.631Z,31.23
2022-12-20T06:46:17.284Z,29.80
2022-12-20T06:48:45.871Z,30.17
2022-12-20T06:51:14.800Z,32.20
2022-12-20T06:53:42.841Z,32.37
2022-12-20T06:56:10.600Z,32.07
2022-12-20T06:58:38.000Z,31.73
2022-12-20T07:01:05.964Z,31.73
2022-12-20T07:03:34.534Z,31.07
2022-12-20T07:06:02.021Z,32.13
2022-12-20T07:08:29.896Z,30.73
2022-12-20T07:11:02.851Z,30.97
2022-12-20T07:13:30.826Z,30.77
2022-12-20T07:16:00.056Z,29.67
2022-12-20T07:18:27.774Z,30.97
2022-12-20T07:20:55.676Z,31.23
2022-12-20T07:23:23.136Z,30.07
2022-12-20T07:25:59.302Z,29.43
2022-12-20T07:28:27.767Z,29.77
2022-12-20T07:30:55.248Z,29.83
2022-12-20T07:33:22.705Z,29.23
2022-12-20T07:35:54.375Z,30.57
2022-12-20T07:38:22.430Z,31.00
2022-12-20T07:40:50.091Z,29.13
2022-12-20T07:43:17.490Z,29.93
2022-12-20T07:45:45.176Z,30.77
2022-12-20T07:48:19.712Z,29.30
2022-12-20T07:50:48.963Z,30.77
2022-12-20T07:53:16.265Z,29.93
2022-12-20T07:55:44.108Z,28.60
2022-12-20T07:58:25.678Z,28.53
2022-12-20T08:00:53.303Z,28.47
2022-12-20T08:03:27.047Z,29.93
2022-12-20T08:05:59.628Z,28.87
2022-12-20T08:08:27.014Z,29.53
2022-12-20T08:10:54.329Z,29.80
2022-12-20T08:13:21.764Z,29.13
2022-12-20T08:15:49.326Z,30.00
2022-12-20T08:18:16.917Z,29.60
2022-12-20T08:20:44.884Z,28.83
2022-12-20T08:23:12.312Z,29.17
2022-12-20T08:25:41.987Z,27.97
2022-12-20T08:28:10.078Z,28.87
2022-12-20T08:30:38.162Z,28.67
2022-12-20T08:33:06.078Z,27.77
2022-12-20T08:35:33.576Z,28.47
2022-12-20T08:38:01.114Z,29.13
2022-12-20T08:40:28.857Z,28.57
2022-12-20T08:42:56.551Z,28.97
2022-12-20T08:45:24.793Z,28.40
2022-12-20T08:47:53.650Z,29.53
2022-12-20T08:50:21.112Z,31.50
2022-12-20T08:52:48.529Z,38.00
2022-12-20T08:55:15.838Z,40.90
2022-12-20T08:57:43.551Z,37.03
2022-12-20T09:00:11.694Z,34.60
2022-12-20T09:02:41.563Z,32.17
2022-12-20T09:05:09.729Z,35.60
2022-12-20T09:07:37.377Z,29.67
2022-12-20T09:10:05.181Z,30.33
2022-12-20T09:12:32.863Z,30.63
2022-12-20T09:15:00.287Z,28.10
2022-12-20T09:17:27.963Z,27.57
2022-12-20T09:19:55.558Z,26.80
2022-12-20T09:22:23.008Z,25.17
2022-12-20T09:24:50.406Z,25.10
2022-12-20T09:27:17.883Z,24.30
2022-12-20T09:29:45.570Z,25.67
2022-12-20T09:32:13.291Z,24.93
2022-12-20T09:34:40.603Z,24.40
2022-12-20T09:37:08.447Z,23.70
2022-12-20T09:39:35.952Z,24.83
2022-12-20T09:42:08.150Z,29.73
2022-12-20T09:44:39.722Z,27.53
2022-12-20T09:47:26.681Z,29.50
2022-12-20T09:49:57.678Z,26.13
2022-12-20T09:52:42.992Z,25.50
2022-12-20T09:55:28.832Z,24.07
2022-12-20T09:58:10.623Z,25.73
2022-12-20T10:00:53.253Z,24.30
2022-12-20T10:03:35.840Z,24.83
2022-12-20T10:06:27.627Z,23.47
2022-12-20T10:09:04.048Z,22.57
2022-12-20T10:11:38.644Z,26.33
2022-12-20T10:14:26.962Z,27.97
2022-12-20T10:17:02.295Z,25.23
2022-12-20T10:19:34.854Z,26.93
2022-12-20T10:22:14.549Z,24.40
2022-12-20T10:24:47.976Z,25.27
2022-12-20T10:27:18.736Z,27.87
2022-12-20T10:29:48.105Z,27.20
2022-12-20T10:32:18.761Z,29.20
2022-12-20T10:34:51.735Z,28.60
2022-12-20T10:37:20.124Z,28.93
2022-12-20T10:39:50.954Z,28.97
2022-12-20T10:42:29.923Z,29.47
2022-12-20T10:44:57.836Z,29.57
2022-12-20T10:47:37.256Z,30.10
2022-12-20T10:50:17.312Z,28.40
2022-12-20T10:52:45.948Z,27.47
2022-12-20T10:55:35.047Z,26.97
2022-12-20T10:58:13.864Z,25.93
2022-12-20T11:00:41.593Z,28.47
2022-12-20T11:03:49.972Z,26.00
2022-12-20T11:06:19.453Z,27.37
2022-12-20T11:08:52.710Z,27.07
2022-12-20T11:11:25.218Z,25.80
2022-12-20T11:13:52.995Z,27.20
2022-12-20T11:16:25.714Z,25.90
2022-12-20T11:19:29.517Z,26.43
2022-12-20T11:22:09.060Z,25.50
2022-12-20T11:24:39.392Z,26.53
2022-12-20T11:27:16.121Z,27.83
2022-12-20T11:29:56.237Z,28.57
2022-12-20T11:32:48.925Z,29.33
2022-12-20T11:36:04.823Z,28.73
2022-12-20T11:38:40.924Z,28.53
2022-12-20T11:41:11.845Z,31.40
2022-12-20T11:44:23.882Z,31.67
2022-12-20T11:47:09.528Z,30.17
2022-12-20T11:49:52.229Z,28.07
2022-12-20T11:52:36.565Z,29.53
2022-12-20T11:55:07.778Z,27.67
2022-12-20T11:58:09.445Z,27.97
2022-12-20T12:00:36.286Z,27.27
2022-12-20T12:03:20.052Z,28.87
2022-12-20T12:05:53.461Z,27.53
2022-12-20T12:08:32.225Z,28.50
2022-12-20T12:12:05.341Z,27.63
2022-12-20T12:14:29.228Z,28.93
2022-12-20T12:17:02.014Z,28.63
2022-12-20T12:19:30.871Z,28.37
2022-12-20T12:22:07.235Z,28.57
2022-12-20T12:24:43.562Z,28.53
2022-12-20T12:27:24.155Z,29.00
2022-12-20T12:29:56.531Z,26.73
2022-12-20T12:32:34.545Z,29.73
2022-12-20T12:35:20.845Z,29.10
2022-12-20T12:37:55.619Z,30.23
2022-12-20T12:40:52.814Z,33.40
2022-12-20T12:43:52.950Z,29.37
2022-12-20T12:46:26.239Z,28.90
2022-12-20T12:49:01.433Z,31.47
2022-12-20T12:51:34.942Z,28.87
2022-12-20T12:54:10.253Z,30.10
2022-12-20T12:56:46.236Z,27.70
2022-12-20T12:59:41.363Z,29.53
2022-12-20T13:02:15.502Z,28.77
2022-12-20T13:05:11.058Z,26.40
2022-12-20T13:07:45.519Z,25.50
2022-12-20T13:10:19.037Z,26.47
2022-12-20T13:12:52.621Z,24.80
2022-12-20T13:15:20.044Z,23.87
2022-12-20T13:17:55.414Z,23.63
2022-12-20T13:20:28.691Z,21.30
2022-12-20T13:23:17.317Z,21.00
2022-12-20T13:25:46.552Z,18.47
2022-12-20T13:28:17.150Z,18.90
2022-12-20T13:31:10.004Z,20.57
2022-12-20T13:33:45.922Z,20.40
2022-12-20T13:36:13.466Z,22.87
2022-12-20T13:38:51.748Z,24.43
2022-12-20T13:41:41.630Z,21.93
2022-12-20T13:44:15.069Z,24.03
2022-12-20T13:46:49.560Z,22.17
2022-12-20T13:49:36.359Z,24.57
2022-12-20T13:52:24.568Z,23.80
2022-12-20T13:54:55.913Z,24.37
2022-12-20T13:57:43.929Z,23.63
2022-12-20T14:00:22.788Z,25.03
2022-12-20T14:02:50.612Z,24.57
2022-12-20T14:05:26.848Z,25.17
2022-12-20T14:08:08.039Z,26.40
2022-12-20T14:10:36.710Z,26.77
2022-12-20T14:13:17.845Z,26.77
2022-12-20T14:15:45.938Z,26.10
2022-12-20T14:18:22.051Z,27.67
2022-12-20T14:20:58.127Z,26.67
2022-12-20T14:23:41.661Z,26.43
2022-12-20T14:26:22.436Z,25.30
2022-12-20T14:28:58.502Z,27.27
2022-12-20T14:31:32.234Z,26.37
2022-12-20T14:34:14.457Z,49.33
2022-12-20T14:36:44.605Z,27.73
2022-12-20T14:39:31.708Z,27.77
2022-12-20T14:42:21.137Z,25.70
2022-12-20T14:44:48.700Z,25.47
2022-12-20T14:47:22.603Z,25.80
2022-12-20T14:49:55.990Z,27.10
2022-12-20T14:52:33.673Z,27.20
2022-12-20T14:55:08.195Z,26.50
2022-12-20T14:57:36.954Z,26.23
2022-12-20T15:00:15.085Z,22.00
2022-12-20T15:02:46.343Z,28.23
2022-12-20T15:05:39.009Z,24.20
2022-12-20T15:08:20.176Z,25.57
2022-12-20T15:10:52.587Z,25.87
2022-12-20T15:13:23.379Z,24.80
2022-12-20T15:15:50.973Z,24.23
2022-12-20T15:18:20.199Z,27.33
2022-12-20T15:21:02.372Z,23.57
2022-12-20T15:23:30.191Z,23.60
2022-12-20T15:25:57.701Z,25.53
2022-12-20T15:28:27.256Z,25.00
2022-12-20T15:30:55.663Z,25.13
2022-12-20T15:33:34.229Z,24.40
2022-12-20T15:36:02.257Z,24.77
2022-12-20T15:38:54.673Z,31.00
2022-12-20T15:41:22.217Z,54.20
2022-12-20T15:43:53.983Z,29.13
2022-12-20T15:46:22.268Z,28.77
2022-12-20T15:48:50.147Z,27.90
2022-12-20T15:51:38.371Z,26.27
2022-12-20T15:54:14.519Z,25.10
2022-12-20T15:56:41.872Z,23.63
2022-12-20T15:59:40.358Z,24.20
2022-12-20T16:01:57.053Z,24.87
2022-12-20T16:04:24.773Z,24.97
2022-12-20T16:06:53.825Z,24.20
2022-12-20T16:09:22.593Z,24.20
2022-12-20T16:11:50.265Z,23.30
2022-12-20T16:14:21.664Z,23.67
2022-12-20T16:16:50.453Z,24.40
2022-12-20T16:19:18.008Z,24.83
2022-12-20T16:21:50.090Z,25.40
2022-12-20T16:24:20.412Z,25.97
2022-12-20T16:26:51.718Z,23.80
2022-12-20T16:29:19.129Z,23.33
2022-12-20T16:31:46.559Z,23.67
2022-12-20T16:34:16.711Z,24.03
2022-12-20T16:36:44.941Z,23.33
2022-12-20T16:39:12.422Z,24.17
2022-12-20T16:41:41.502Z,23.00
2022-12-20T16:44:16.630Z,24.70
2022-12-20T16:46:45.584Z,23.20
2022-12-20T16:49:19.766Z,22.63
2022-12-20T16:51:49.317Z,22.27
2022-12-20T16:54:20.869Z,24.07
2022-12-20T16:56:56.945Z,22.93
2022-12-20T16:59:25.435Z,21.73
2022-12-20T17:01:55.980Z,22.40
2022-12-20T17:04:24.325Z,21.83
2022-12-20T17:06:52.042Z,22.50
2022-12-20T17:12:19.474Z,21.53
2022-12-20T17:14:47.549Z,20.53
2022-12-20T17:17:15.355Z,22.47
2022-12-20T17:19:42.708Z,22.43
2022-12-20T17:22:25.119Z,22.27
2022-12-20T17:24:52.469Z,22.83
2022-12-20T17:27:20.077Z,20.80
2022-12-20T17:29:47.477Z,22.80
2022-12-20T17:32:25.814Z,21.10
2022-12-20T17:34:53.662Z,20.00
2022-12-20T17:37:21.744Z,20.43
2022-12-20T17:39:49.547Z,20.97
2022-12-20T17:42:17.253Z,20.73
2022-12-20T17:44:46.222Z,20.13
2022-12-20T17:47:14.069Z,20.50
2022-12-20T17:49:41.385Z,19.60
2022-12-20T17:52:15.590Z,20.60
2022-12-20T17:54:43.060Z,21.63
2022-12-20T17:57:16.692Z,20.60
2022-12-20T17:59:45.353Z,22.27
2022-12-20T18:02:23.902Z,20.53
2022-12-20T18:04:52.311Z,21.33
2022-12-20T18:07:20.051Z,19.87
2022-12-20T18:09:48.482Z,22.17
2022-12-20T18:12:16.789Z,19.73
2022-12-20T18:14:45.841Z,19.97
2022-12-20T18:17:13.434Z,20.63
2022-12-20T18:19:41.337Z,25.27
2022-12-20T18:22:09.411Z,21.90
2022-12-20T18:24:36.691Z,20.87
2022-12-20T18:27:04.093Z,19.13
2022-12-20T18:29:31.612Z,19.20
2022-12-20T18:31:59.301Z,20.33
2022-12-20T18:34:26.868Z,20.43
2022-12-20T18:36:54.269Z,21.17
2022-12-20T18:39:21.613Z,21.03
2022-12-20T18:41:51.265Z,19.93
2022-12-20T18:44:18.583Z,20.73
2022-12-20T18:46:45.960Z,21.10
2022-12-20T18:49:13.253Z,19.43
2022-12-20T18:51:40.694Z,20.70
2022-12-20T18:54:08.775Z,18.60
2022-12-20T18:56:39.128Z,19.23
2022-12-20T18:59:11.986Z,17.80
2022-12-20T19:01:41.464Z,18.50
2022-12-20T19:04:09.311Z,19.20
2022-12-20T19:06:38.068Z,18.20
2022-12-20T19:09:09.005Z,17.17
2022-12-20T19:11:36.803Z,17.63
2022-12-20T19:14:04.462Z,17.77
2022-12-20T19:16:32.778Z,17.63
2022-12-20T19:19:03.807Z,17.63
2022-12-20T19:21:33.689Z,17.87
2022-12-20T19:24:05.087Z,16.77
2022-12-20T19:26:33.668Z,16.17
2022-12-20T19:29:01.162Z,17.73
2022-12-20T19:31:31.074Z,17.43
2022-12-20T19:34:04.045Z,16.20
2022-12-20T19:36:43.682Z,17.53
2022-12-20T19:39:17.196Z,16.17
2022-12-20T19:41:55.042Z,15.87
2022-12-20T19:44:32.016Z,15.10
2022-12-20T19:47:05.838Z,15.17
2022-12-20T19:49:35.648Z,15.13
2022-12-20T19:52:03.807Z,14.53
2022-12-20T19:54:31.536Z,15.20
2022-12-20T19:56:59.209Z,13.83
2022-12-20T19:59:26.609Z,13.90
2022-12-20T20:01:54.302Z,14.33
2022-12-20T20:04:21.882Z,13.37
2022-12-20T20:06:49.672Z,14.13
2022-12-20T20:09:17.072Z,14.27
2022-12-20T20:11:44.711Z,13.13
2022-12-20T20:14:12.239Z,13.37
2022-12-20T20:16:39.729Z,12.40
2022-12-20T20:19:07.114Z,14.40
2022-12-20T20:21:36.506Z,14.00
2022-12-20T20:24:04.885Z,13.40
2022-12-20T20:26:32.338Z,12.53
2022-12-20T20:29:01.441Z,13.23
2022-12-20T20:31:29.221Z,13.73
2022-12-20T20:33:58.289Z,12.43
2022-12-20T20:36:26.094Z,12.80
2022-12-20T20:38:53.622Z,13.17
2022-12-20T20:41:21.127Z,13.20
2022-12-20T20:43:48.773Z,12.67
2022-12-20T20:46:17.896Z,13.67
2022-12-20T20:48:45.575Z,13.03
2022-12-20T20:51:13.106Z,14.30
2022-12-20T20:53:40.871Z,13.67
2022-12-20T20:56:09.702Z,13.97
2022-12-20T20:58:37.647Z,13.30
2022-12-20T21:01:08.717Z,25.83
2022-12-20T21:03:37.283Z,13.70
2022-12-20T21:06:37.172Z,14.37
2022-12-20T21:08:54.385Z,13.73
2022-12-20T21:11:22.341Z,14.37
2022-12-20T21:13:49.841Z,14.73
2022-12-20T21:16:22.215Z,14.00
2022-12-20T21:18:55.106Z,14.33
2022-12-20T21:21:24.814Z,14.27
2022-12-20T21:23:55.955Z,14.33
2022-12-20T21:26:25.397Z,14.23
2022-12-20T21:28:57.564Z,13.50
2022-12-20T21:31:25.490Z,14.07
2022-12-20T21:33:52.895Z,13.97
2022-12-20T21:36:20.665Z,13.17
2022-12-20T21:38:53.773Z,13.37
2022-12-20T21:41:23.607Z,13.30
2022-12-20T21:43:54.355Z,13.40
2022-12-20T21:46:22.128Z,12.57
2022-12-20T21:48:49.631Z,13.03
2022-12-20T21:51:22.967Z,13.47
2022-12-20T21:53:52.608Z,14.03
2022-12-20T21:56:21.632Z,13.97
2022-12-20T21:58:49.938Z,13.83
2022-12-20T22:01:21.030Z,14.00
2022-12-20T22:03:57.192Z,14.10
2022-12-20T22:06:25.881Z,13.73
2022-12-20T22:08:53.608Z,13.60
2022-12-20T22:11:21.044Z,12.70
2022-12-20T22:13:48.731Z,14.13
2022-12-20T22:16:19.426Z,14.53
2022-12-20T22:18:51.040Z,14.33
2022-12-20T22:21:20.552Z,15.23
2022-12-20T22:23:48.082Z,15.50
2022-12-20T22:26:20.604Z,16.17
2022-12-20T22:28:51.202Z,16.30
2022-12-20T22:31:19.371Z,15.83
2022-12-20T22:33:47.503Z,16.33
2022-12-20T22:36:16.400Z,17.57
2022-12-20T22:38:45.053Z,15.73
2022-12-20T22:41:18.524Z,15.43
2022-12-20T22:43:47.372Z,17.30
2022-12-20T22:46:16.644Z,16.63
2022-12-20T22:48:45.254Z,18.37
2022-12-20T22:51:18.840Z,17.73
2022-12-20T22:53:47.834Z,17.23
2022-12-20T22:56:17.649Z,16.67
2022-12-20T22:58:45.333Z,16.57
2022-12-20T23:01:15.637Z,17.00
2022-12-20T23:03:43.762Z,15.80
2022-12-20T23:06:14.420Z,15.73
2022-12-20T23:08:42.370Z,16.77
2022-12-20T23:11:43.501Z,15.67
2022-12-20T23:14:38.012Z,14.80
2022-12-20T23:17:07.487Z,15.27
2022-12-20T23:19:53.996Z,15.97
2022-12-20T23:22:38.459Z,16.47
2022-12-20T23:25:09.391Z,15.27
2022-12-20T23:27:36.951Z,16.00
2022-12-20T23:30:06.808Z,16.10
2022-12-20T23:32:34.632Z,15.20
2022-12-20T23:35:05.637Z,14.90
2022-12-20T23:37:38.415Z,14.90
2022-12-20T23:40:07.441Z,16.87
2022-12-20T23:42:34.931Z,15.37
2022-12-20T23:45:02.551Z,15.20
2022-12-20T23:47:31.449Z,16.23
2022-12-20T23:49:58.936Z,16.20
2022-12-20T23:52:26.883Z,17.40
2022-12-20T23:54:54.393Z,16.63
2022-12-20T23:57:22.767Z,16.20
2022-12-20T23:59:50.039Z,16.33
